Weather at Shravasti Airport

Public forecast

Using degrees Celsius for public forecast. Weather courtesy of forecast.io.

Closest aviation weather report (METAR) to Shravasti Airport

Closest report is Chaudhary Charan Singh International Airport, 75.4 nm (139.6 km) SW.

2024/05/18 23:00 (retrieved 31 minutes ago)

VILK 182300Z 30006KT 5000 HZ SCT020 BKN100 32/17 Q0999 TEMPO 3000 -TSRA

Closest aviation forecast (TAF) to Shravasti Airport

Closest forecast is Chaudhary Charan Singh International Airport, 75.4 nm (139.6 km) SW.

2024/05/18 18:00 (retrieved 6 hours ago)

TAF VILK 181700Z 1818/1924 VRB02KT 5000 HZ NSC BECMG 1822/1824 4000 HZ SCT100 BECMG 1900/1902 VRB02KT 3000 HZ FEW020 SCT100 BECMG 1904/1906 27008KT 5000 HZ BECMG 1916/1918 VRB02KT 5000 HZ SCT100